Latest Coastal Weather Observations for East Sale

IDV60701

Issued at 8:51 am EDT Sunday 4 December 2016 (issued every 10 minutes, with the page automatically refreshed every 10 minutes)

About coastal observations | Map of coastal stations | Coastal observations for VIC | Marine services | Other Formats
Station Details ID: 085072 Name: EAST SALE AIRPORT Lat: -38.12 Lon: 147.13 Height: 4.6 m
Data from the previous 72 hours. | See also: Recent months at East Sale
Date/Time
EDT
Temp
°C
Wind Pressure Rain since
9am
mm
Weather Cloud Vis
km
Sea
Height
m
Swell
Dir  Spd
kts
Gust
kts
hPa Trend Height
m
Period
s
Dir
04/08:30am 15.3 NNE 3 4 1012.9 - 0.0 - - 10 - - - -
04/08:00am 14.9 NE 3 5 1012.9 - 0.0 - - 10 - - - -
04/07:50am 14.1 N 2 3 1013.0 - 0.0 - Partly cloudy 10 - - - -
04/07:30am 13.8 NNW 3 5 1013.0 - 0.0 - Partly cloudy 10 - - - -
04/07:24am 13.6 NNW 4 5 1013.1 - 0.0 - Partly cloudy 10 - - - -
04/07:18am 13.6 N 5 6 1013.1 - 0.0 - Partly cloudy 10 - - - -
04/07:00am 13.3 N 4 6 1013.3 - 0.0 - Partly cloudy 10 - - - -
04/06:30am 12.7 CALM 0 0 1013.0 - 0.0 - Cloudy 10 - - - -
04/06:00am 11.2 WNW 5 5 1013.5 F 0.0 - Cloudy 10 - - - -
04/05:30am 11.0 NW 3 4 1013.4 - 0.0 - Partly cloudy 10 - - - -
04/05:18am 10.9 NW 4 5 1013.4 - 0.0 - Partly cloudy 10 - - - -
04/05:00am 10.9 NW 5 6 1013.3 - 0.0 - Partly cloudy 10 - - - -
04/04:45am 11.0 NW 5 6 1013.2 - 0.0 - Partly cloudy 10 - - - -
04/04:30am 11.6 NNW 4 5 1012.9 - 0.0 - Partly cloudy 10 - - - -
04/04:00am 12.1 NNE 5 6 1013.2 - 0.0 - Partly cloudy 10 - - - -
04/03:59am 12.1 NNE 5 6 1013.2 - 0.0 - Partly cloudy 10 - - - -
04/03:30am 12.0 N 5 6 1013.5 - 0.0 - Partly cloudy 10 - - - -
04/03:26am 12.3 NNE 5 5 1013.5 - 0.0 - Partly cloudy 10 - - - -
04/03:00am 12.3 NNE 6 6 1013.7 F 0.0 - Partly cloudy 10 - - - -
04/02:56am 12.3 NNE 6 7 1013.7 - 0.0 - Partly cloudy 10 - - - -
04/02:30am 12.5 NNE 6 7 1014.1 - 0.0 - - 10 - - - -
04/02:00am 12.6 NE 5 6 1014.5 - 0.0 - Partly cloudy 10 - - - -
04/01:30am 12.6 ENE 5 6 1014.9 - 0.0 - Partly cloudy 10 - - - -
04/01:00am 12.4 E 5 6 1015.3 - 0.0 - - 10 - - - -
04/12:30am 12.6 ENE 6 7 1015.8 - 0.0 - - 10 - - - -
04/12:00am 12.6 ENE 5 5 1016.3 F 0.0 - - 10 - - - -
 
Date/Time
EDT
Temp
°C
Wind Pressure Rain since
9am
mm
Weather Cloud Vis
km
Sea
Height
m
Swell
Dir  Spd
kts
Gust
kts
hPa Trend Height
m
Period
s
Dir
03/11:30pm 13.5 ENE 6 7 1016.3 - 0.0 - - 10 - - - -
03/11:00pm 13.8 ENE 7 8 1016.5 - 0.0 - - 10 - - - -
03/10:30pm 13.7 E 7 8 1016.7 - 0.0 - - 10 - - - -
03/10:00pm 13.9 E 7 8 1016.7 - 0.0 - - 10 - - - -
03/09:30pm 14.3 ESE 7 9 1016.7 - 0.0 - - 10 - - - -
03/09:00pm 14.4 ESE 8 9 1016.6 F 0.0 - - 10 - - - -
03/08:30pm 14.9 ESE 8 11 1016.5 - 0.0 - - 10 - - - -
03/08:00pm 15.5 ESE 8 10 1016.4 - 0.0 - - 10 - - - -
03/07:30pm 16.3 ESE 11 14 1016.0 - 0.0 - - 10 - - - -
03/07:00pm 17.0 E 12 14 1015.8 - 0.0 - - 10 - - - -
03/06:30pm 17.7 E 13 17 1015.4 - 0.0 - - 10 - - - -
03/06:00pm 17.9 ESE 13 19 1015.3 R 0.0 - - 10 - - - -
03/05:30pm 17.9 E 12 16 1015.5 - 0.0 - - 10 - - - -
03/05:00pm 18.1 ESE 13 17 1015.5 - 0.0 - - 10 - - - -
03/04:30pm 18.6 E 13 18 1015.5 - 0.0 - - 10 - - - -
03/04:00pm 19.5 E 13 19 1015.2 - 0.0 - - 10 - - - -
03/03:30pm 19.7 E 13 17 1015.3 - 0.0 - - 10 - - - -
03/03:00pm 19.3 E 13 17 1015.3 R 0.0 - - 10 - - - -
03/02:30pm 18.9 E 13 18 1015.7 - 0.0 - - 10 - - - -
03/02:00pm 19.3 E 9 17 1015.7 - 0.0 - Partly cloudy 10 - - - -
03/01:30pm 19.5 E 11 15 1015.7 - 0.0 - Partly cloudy 10 - - - -
03/01:00pm 19.3 ENE 6 10 1016.0 - 0.0 - Cloudy 10 - - - -
03/12:30pm 18.6 E 8 12 1016.1 - 0.0 - Partly cloudy 10 - - - -
03/12:00pm 19.1 E 7 11 1016.4 S 0.0 - Mostly cloudy 10 - - - -
03/11:30am 17.8 E 7 12 1016.3 - 0.0 - Partly cloudy 10 - - - -
03/11:00am 17.4 ENE 8 12 1016.5 - 0.0 - Cloudy 10 - - - -
03/10:30am 17.3 NE 6 11 1016.5 - 0.0 - Cloudy 10 - - - -
03/10:00am 16.5 E 7 11 1016.8 - 0.0 - Partly cloudy 10 - - - -
03/09:30am 16.1 ENE 5 9 1016.7 - 0.0 - Partly cloudy 10 - - - -
03/09:00am 16.0 SE 5 8 1016.8 R 0.0 - Cloudy 10 - - - -
03/08:30am 15.2 SE 4 6 1016.9 - 0.0 - Cloudy 10 - - - -
03/08:00am 14.7 S 5 7 1016.7 - 0.0 - Cloudy 10 - - - -
03/07:30am 14.1 SE 3 5 1016.5 - 0.0 - Cloudy 10 - - - -
03/07:00am 13.8 SSE 3 4 1016.4 - 0.0 - Cloudy 10 - - - -
03/06:30am 13.2 SSE 3 4 1016.1 - 0.0 - Partly cloudy 10 - - - -
03/06:00am 13.0 SSW 3 4 1016.0 S 0.0 - Cloudy 10 - - - -
03/05:30am 12.8 SSW 3 4 1015.8 - 0.0 - Partly cloudy 10 - - - -
03/05:00am 13.0 SSW 5 6 1015.5 - 0.0 - Cloudy 10 - - - -
03/04:30am 13.2 S 3 4 1015.3 - 0.0 - Partly cloudy 10 - - - -
03/04:00am 13.3 SSW 4 5 1015.4 - 0.0 - Cloudy 10 - - - -
03/03:30am 13.4 SSW 4 6 1015.6 - 0.0 - Cloudy 10 - - - -
03/03:00am 13.4 SW 5 5 1015.7 S 0.0 - Cloudy 10 - - - -
03/02:30am 13.7 SW 4 5 1016.0 - 0.0 - Cloudy 10 - - - -
03/02:00am 13.7 WSW 4 5 1016.2 - 0.0 - Cloudy 10 - - - -
03/01:30am 13.8 W 6 8 1016.4 - 0.0 - Cloudy 10 - - - -
03/01:00am 13.9 WNW 5 6 1016.5 - 0.0 - Partly cloudy 10 - - - -
03/12:30am 14.2 SW 3 5 1016.6 - 0.0 - Cloudy 10 - - - -
03/12:00am 14.3 SSW 4 5 1016.7 R 0.0 - Cloudy 10 - - - -
 
Date/Time
EDT
Temp
°C
Wind Pressure Rain since
9am
mm
Weather Cloud Vis
km
Sea
Height
m
Swell
Dir  Spd
kts
Gust
kts
hPa Trend Height
m
Period
s
Dir
02/11:30pm 14.4 SW 4 7 1016.7 - 0.0 - Cloudy 10 - - - -
02/11:00pm 14.4 SW 5 6 1016.6 - 0.0 - Cloudy 10 - - - -
02/10:30pm 14.9 SSW 8 11 1016.5 - 0.0 - Partly cloudy 10 - - - -
02/10:00pm 15.1 SSW 9 12 1016.3 - 0.0 - Cloudy 10 - - - -
02/09:30pm 15.4 S 9 14 1015.8 - 0.0 - Cloudy 10 - - - -
02/09:00pm 15.9 S 9 12 1015.3 R 0.0 - Cloudy 10 - - - -
02/08:30pm 16.3 S 9 12 1014.8 - 0.0 - Cloudy 10 - - - -
02/08:00pm 16.7 SSE 7 11 1014.3 - 0.0 - Cloudy 10 - - - -
02/07:30pm 17.1 SE 6 8 1013.8 - 0.0 - Cloudy 10 - - - -
02/07:00pm 17.5 E 8 9 1013.3 - 0.0 - Cloudy 10 - - - -
02/06:30pm 17.3 ESE 10 13 1012.9 - 0.0 - Cloudy 10 - - - -
02/06:00pm 17.5 SE 7 10 1012.4 R 0.0 - Cloudy 10 - - - -
02/05:30pm 18.6 E 9 12 1012.1 - 0.0 - Partly cloudy 10 - - - -
02/05:00pm 19.3 E 11 13 1011.9 - 0.0 - Cloudy 10 - - - -
02/04:30pm 20.1 E 9 12 1011.5 - 0.0 - Cloudy 10 - - - -
02/04:00pm 20.8 ENE 11 13 1011.4 - 0.0 - Cloudy 10 - - - -
02/03:30pm 22.1 NW 7 14 1011.3 - 0.0 - Partly cloudy 10 - - - -
02/03:00pm 23.2 W 10 15 1011.1 R 0.0 - Partly cloudy 10 - - - -
02/02:30pm 23.3 SW 9 16 1011.0 - 0.0 - Mostly clear 10 - - - -
02/02:00pm 22.9 WSW 13 19 1011.0 - 0.0 - Mostly clear 10 - - - -
02/01:30pm 22.2 W 13 19 1010.9 - 0.0 - Partly cloudy 10 - - - -
02/01:00pm 21.1 W 16 22 1010.9 - 0.0 - Partly cloudy 10 - - - -
02/12:30pm 21.1 WSW 14 19 1010.9 - 0.0 - Partly cloudy 10 - - - -
02/12:00pm 20.8 W 15 21 1010.7 R 0.0 - Mostly clear 10 - - - -
02/11:30am 20.6 WSW 14 19 1010.6 - 0.0 - Partly cloudy 10 - - - -
02/11:00am 19.4 WSW 14 21 1010.6 - 0.0 - Partly cloudy 10 - - - -
02/10:30am 18.5 WSW 13 18 1010.5 - 0.0 - Partly cloudy 10 - - - -
02/10:00am 18.2 WSW 14 19 1010.4 - 0.0 - Partly cloudy 10 - - - -
02/09:30am 18.1 WSW 10 15 1010.3 - 0.0 - Mostly clear 10 - - - -
02/09:00am 17.1 W 7 11 1010.3 R 0.0 - Cloudy 10 - - - -
02/08:48am 16.4 WSW 7 9 1010.1 - 0.0 - Mostly clear 10 - - - -
02/08:30am 16.1 SSW 4 6 1009.9 - 0.0 - Mostly clear 10 - - - -
02/08:09am 15.6 SSW 5 6 1009.8 - 0.0 - Partly cloudy 10 - - - -
02/08:00am 15.4 SW 6 9 1009.7 - 0.0 - Partly cloudy 10 - - - -
02/07:48am 15.2 WSW 8 11 1009.5 - 0.0 - Partly cloudy 10 - - - -
02/07:30am 15.4 SW 5 8 1009.2 - 0.0 - Partly cloudy 10 - - - -
02/07:00am 15.0 WSW 5 6 1008.6 - 0.0 - Cloudy 10 - - - -
02/06:30am 14.9 WNW 4 5 1008.1 - 0.0 - Cloudy 10 - - - -
02/06:00am 14.4 WNW 5 6 1007.7 R 0.0 - Cloudy 10 - - - -
02/05:30am 13.7 NNW 5 6 1007.2 - 0.0 - Cloudy 10 - - - -
02/05:00am 13.7 N 4 5 1006.9 - 0.0 - Cloudy 10 - - - -
02/04:30am 13.5 WNW 5 6 1007.1 - 0.0 - Cloudy 10 - - - -
02/04:00am 13.6 WNW 5 5 1007.1 - 0.0 - Cloudy 10 - - - -
02/03:40am 13.9 W 3 5 1007.1 - 0.0 - Partly cloudy 10 - - - -
02/03:30am 14.1 WSW 3 3 1007.0 - 0.0 - Partly cloudy 10 - - - -
02/03:00am 13.4 W 2 3 1006.9 R 0.0 - Mostly cloudy 10 - - - -
02/02:56am 13.1 W 3 4 1007.0 - 0.0 - Partly cloudy 10 - - - -
02/02:37am 13.2 CALM 0 0 1006.9 - 0.0 - Partly cloudy 6 - - - -
02/02:30am 12.6 CALM 0 0 1006.9 - 0.0 - Partly cloudy 10 - - - -
02/02:00am 13.5 S 4 4 1006.9 - 0.0 - - 10 - - - -
02/01:30am 14.0 S 4 5 1007.2 - 0.0 - - 10 - - - -
02/01:00am 14.0 S 5 6 1007.3 - 0.0 - - 10 - - - -
02/12:42am 14.4 SE 6 7 1007.2 - 0.0 - Partly cloudy 10 - - - -
02/12:30am 14.5 SSE 5 6 1007.3 - 0.0 - Partly cloudy 10 - - - -
02/12:08am 14.5 SSE 5 7 1007.4 - 0.0 - Partly cloudy 10 - - - -
02/12:00am 14.6 SE 6 7 1007.4 F 0.0 - Mostly clear 10 - - - -
 
Date/Time
EDT
Temp
°C
Wind Pressure Rain since
9am
mm
Weather Cloud Vis
km
Sea
Height
m
Swell
Dir  Spd
kts
Gust
kts
hPa Trend Height
m
Period
s
Dir
01/11:30pm 14.8 SE 5 6 1007.6 - 0.0 - - 10 - - - -
01/11:00pm 14.8 SSE 4 5 1007.5 - 0.0 - - 10 - - - -
01/10:30pm 15.0 SE 5 6 1007.4 - 0.0 - - 10 - - - -
01/10:00pm 15.5 SSE 5 6 1007.7 - 0.0 - - 10 - - - -
01/09:30pm 15.6 SE 7 8 1007.5 - 0.0 - - 10 - - - -
01/09:00pm 16.0 SE 6 7 1007.4 F 0.0 - Mostly cloudy 10 - - - -
01/08:30pm 16.7 ESE 6 8 1007.0 - 0.0 - - 10 - - - -
01/08:00pm 17.5 E 9 11 1006.6 - 0.0 - - 10 - - - -
01/07:30pm 17.9 E 11 13 1006.4 - 0.0 - - 10 - - - -
01/07:00pm 18.7 ESE 10 13 1006.3 - 0.0 - - 10 - - - -
01/06:30pm 18.3 ESE 11 13 1005.8 - 0.0 - - 10 - - - -
01/06:00pm 18.6 ESE 11 14 1006.0 R 0.0 - Cloudy 10 - - - -
01/05:30pm 19.2 SE 12 16 1006.0 - 0.0 - - 10 - - - -
01/05:00pm 20.0 SE 12 16 1006.1 - 0.0 - - 10 - - - -
01/04:30pm 20.9 ESE 13 18 1005.8 - 0.0 - - 10 - - - -
01/04:00pm 20.7 SE 12 16 1006.1 - 0.0 - Mostly clear 10 - - - -
01/03:30pm 20.8 ESE 12 15 1005.9 - 0.0 - Mostly clear 10 - - - -
01/03:00pm 21.1 E 13 17 1006.0 R 0.0 - Mostly clear 10 - - - -
01/02:30pm 23.0 E 13 17 1005.9 - 0.0 - Mostly clear 10 - - - -
01/02:00pm 24.1 SE 7 13 1006.3 - 0.0 - Mostly clear 10 - - - -
01/01:30pm 24.3 SW 7 12 1006.4 - 0.0 - - 10 - - - -
01/01:00pm 23.6 WSW 7 13 1006.7 - 0.0 - - 10 - - - -
01/12:30pm 22.5 WSW 8 12 1006.8 - 0.0 - Mostly clear 10 - - - -
01/12:00pm 22.4 W 8 11 1007.0 F 0.0 - Mostly clear 10 - - - -
01/11:30am 21.3 W 8 12 1007.1 - 0.0 - Mostly clear 10 - - - -
01/11:00am 20.5 W 8 12 1007.3 - 0.0 - Mostly clear 10 - - - -
01/10:30am 20.3 W 9 14 1007.7 - 0.0 - Partly cloudy 10 - - - -
01/10:00am 19.5 W 10 15 1007.9 - 0.0 - Partly cloudy 10 - - - -
01/09:30am 19.1 WSW 10 13 1007.8 - 0.0 - Partly cloudy 10 - - - -
01/09:00am 18.6 WSW 12 15 1007.9 F 0.0 - Partly cloudy 10 - - - -

Other Formats:

Comma delimited format used in spreadsheet applications
http://www.bom.gov.au/fwo/IDV60701/IDV60701.94907.axf

JavaScript Object Notation format (JSON) in row-major order
http://www.bom.gov.au/fwo/IDV60701/IDV60701.94907.json